createdAt,value
2019-02-10T00:00:33.114Z,8.90
2019-02-10T00:03:03.505Z,8.57
2019-02-10T00:05:33.990Z,8.73
2019-02-10T00:08:04.467Z,11.90
2019-02-10T00:10:34.976Z,8.70
2019-02-10T00:13:26.892Z,8.90
2019-02-10T00:15:57.683Z,7.80
2019-02-10T00:18:32.757Z,6.47
2019-02-10T00:21:03.274Z,7.13
2019-02-10T00:23:33.674Z,5.83
2019-02-10T00:26:04.271Z,6.47
2019-02-10T00:28:34.775Z,4.13
2019-02-10T00:31:05.507Z,2.07
2019-02-10T00:33:36.000Z,6.67
2019-02-10T00:36:06.498Z,3.47
2019-02-10T00:38:37.014Z,5.33
2019-02-10T00:41:07.618Z,3.33
2019-02-10T00:43:38.075Z,2.87
2019-02-10T00:46:09.067Z,3.23
2019-02-10T00:48:39.545Z,2.33
2019-02-10T00:51:10.407Z,1.90
2019-02-10T00:53:40.915Z,2.13
2019-02-10T00:56:11.411Z,3.60
2019-02-10T00:58:42.514Z,1.47
2019-02-10T01:01:12.998Z,5.03
2019-02-10T01:03:43.490Z,1.90
2019-02-10T01:06:13.971Z,5.20
2019-02-10T01:08:45.361Z,2.90
2019-02-10T01:11:15.832Z,2.93
2019-02-10T01:13:46.422Z,7.50
2019-02-10T01:16:17.022Z,8.17
2019-02-10T01:19:07.933Z,13.57
2019-02-10T01:21:39.799Z,12.90
2019-02-10T01:24:10.748Z,10.63
2019-02-10T01:26:41.218Z,16.67
2019-02-10T01:29:11.722Z,14.40
2019-02-10T01:31:42.327Z,15.20
2019-02-10T01:34:13.023Z,22.03
2019-02-10T01:36:49.437Z,18.20
2019-02-10T01:39:19.094Z,21.30
2019-02-10T01:41:49.767Z,25.67
2019-02-10T01:44:20.186Z,28.60
2019-02-10T01:46:52.116Z,25.53
2019-02-10T01:49:23.047Z,26.87
2019-02-10T01:51:53.648Z,26.63
2019-02-10T01:54:24.137Z,36.90
2019-02-10T01:56:54.954Z,29.90
2019-02-10T01:59:25.489Z,41.63
2019-02-10T02:01:55.962Z,33.87
2019-02-10T02:04:26.538Z,38.73
2019-02-10T02:06:58.142Z,41.23
2019-02-10T02:09:28.710Z,38.37
2019-02-10T02:11:59.411Z,35.70
2019-02-10T02:14:30.054Z,36.77
2019-02-10T02:17:00.522Z,39.03
2019-02-10T02:19:31.175Z,38.43
2019-02-10T02:22:01.954Z,44.70
2019-02-10T02:24:32.757Z,38.10
2019-02-10T02:27:03.525Z,37.53
2019-02-10T02:29:34.130Z,46.97
2019-02-10T02:32:04.904Z,38.53
2019-02-10T02:34:35.755Z,41.93
2019-02-10T02:37:07.900Z,45.47
2019-02-10T02:39:38.448Z,40.33
2019-02-10T02:42:08.902Z,42.97
2019-02-10T02:44:39.484Z,38.73
2019-02-10T02:47:09.968Z,33.30
2019-02-10T02:49:43.590Z,42.40
2019-02-10T02:52:14.074Z,34.27
2019-02-10T02:54:44.546Z,37.00
2019-02-10T02:57:15.046Z,34.17
2019-02-10T02:59:45.649Z,41.03
2019-02-10T03:02:16.158Z,38.67
2019-02-10T03:04:46.638Z,39.27
2019-02-10T03:07:18.227Z,41.20
2019-02-10T03:09:48.757Z,46.23
2019-02-10T03:12:19.252Z,37.27
2019-02-10T03:14:49.843Z,36.77
2019-02-10T03:17:20.384Z,46.57
2019-02-10T03:19:51.182Z,26.37
2019-02-10T03:22:21.679Z,33.07
2019-02-10T03:24:52.180Z,34.43
2019-02-10T03:27:22.962Z,25.13
2019-02-10T03:29:53.459Z,35.83
2019-02-10T03:32:23.920Z,34.10
2019-02-10T03:34:57.438Z,37.13
2019-02-10T03:37:27.989Z,31.60
2019-02-10T03:39:58.511Z,30.53
2019-02-10T03:42:29.170Z,34.40
2019-02-10T03:44:59.653Z,24.73
2019-02-10T03:47:30.186Z,25.37
2019-02-10T03:50:00.758Z,32.50
2019-02-10T03:52:31.263Z,29.83
2019-02-10T03:55:01.752Z,34.53
2019-02-10T03:57:32.251Z,31.07
2019-02-10T04:00:02.762Z,27.77
2019-02-10T04:02:33.449Z,27.30
2019-02-10T04:05:03.978Z,24.90
2019-02-10T04:07:36.148Z,26.20
2019-02-10T04:10:06.886Z,25.97
2019-02-10T04:12:37.363Z,29.23
2019-02-10T04:15:07.980Z,22.47
2019-02-10T04:17:38.460Z,33.13
2019-02-10T04:20:09.007Z,28.40
2019-02-10T04:22:39.479Z,25.73
2019-02-10T04:25:09.967Z,32.70
2019-02-10T04:27:40.455Z,27.77
2019-02-10T04:30:10.912Z,21.93
2019-02-10T04:32:41.378Z,23.77
2019-02-10T04:35:11.894Z,21.30
2019-02-10T04:37:46.081Z,31.77
2019-02-10T04:40:17.336Z,29.27
2019-02-10T04:42:47.895Z,24.63
2019-02-10T04:45:18.407Z,23.20
2019-02-10T04:47:48.912Z,24.80
2019-02-10T04:50:19.384Z,22.03
2019-02-10T04:52:49.903Z,17.73
2019-02-10T04:55:20.418Z,21.20
2019-02-10T04:57:50.905Z,25.80
2019-02-10T05:00:21.435Z,25.17
2019-02-10T05:02:51.974Z,28.67
2019-02-10T05:05:22.456Z,22.33
2019-02-10T05:07:54.443Z,24.43
2019-02-10T05:10:25.271Z,19.60
2019-02-10T05:12:55.759Z,19.90
2019-02-10T05:15:26.301Z,24.77
2019-02-10T05:17:56.802Z,19.50
2019-02-10T05:20:27.314Z,20.80
2019-02-10T05:22:58.031Z,21.80
2019-02-10T05:25:28.821Z,20.93
2019-02-10T05:27:59.345Z,27.53
2019-02-10T05:30:29.767Z,32.60
2019-02-10T05:33:00.354Z,19.60
2019-02-10T05:35:30.827Z,24.67
2019-02-10T05:38:04.286Z,27.87
2019-02-10T05:40:33.544Z,24.07
2019-02-10T05:43:06.648Z,20.63
2019-02-10T05:45:37.187Z,19.20
2019-02-10T05:48:07.714Z,13.20
2019-02-10T05:50:38.220Z,18.30
2019-02-10T05:53:09.010Z,21.37
2019-02-10T05:55:39.516Z,28.63
2019-02-10T05:58:10.039Z,17.90
2019-02-10T06:00:40.520Z,21.07
2019-02-10T06:03:11.052Z,20.50
2019-02-10T06:05:41.633Z,18.50
2019-02-10T06:08:13.642Z,20.43
2019-02-10T06:10:44.191Z,25.40
2019-02-10T06:13:14.724Z,18.33
2019-02-10T06:15:45.215Z,22.07
2019-02-10T06:18:15.725Z,14.77
2019-02-10T06:20:46.262Z,20.63
2019-02-10T06:23:16.754Z,18.30
2019-02-10T06:25:47.252Z,24.03
2019-02-10T06:28:17.777Z,22.50
2019-02-10T06:30:48.306Z,18.37
2019-02-10T06:33:18.838Z,19.13
2019-02-10T06:35:49.359Z,22.50
2019-02-10T06:38:22.438Z,26.53
2019-02-10T06:40:52.120Z,24.17
2019-02-10T06:43:22.655Z,26.77
2019-02-10T06:45:53.549Z,19.83
2019-02-10T06:48:24.057Z,22.10
2019-02-10T06:50:54.642Z,26.57
2019-02-10T06:53:25.154Z,27.00
2019-02-10T06:55:55.655Z,25.63
2019-02-10T06:58:26.153Z,21.03
2019-02-10T07:01:11.639Z,20.13
2019-02-10T07:03:57.178Z,19.90
2019-02-10T07:06:31.950Z,26.77
2019-02-10T07:09:02.492Z,22.30
2019-02-10T07:11:32.989Z,19.60
2019-02-10T07:14:04.683Z,19.27
2019-02-10T07:16:53.878Z,22.97
2019-02-10T07:20:03.382Z,16.33
2019-02-10T07:22:56.724Z,18.27
2019-02-10T07:25:46.317Z,21.43
2019-02-10T07:28:45.909Z,20.63
2019-02-10T07:31:21.242Z,22.27
2019-02-10T07:34:48.556Z,19.63
2019-02-10T07:37:29.032Z,21.80
2019-02-10T07:40:30.946Z,21.53
2019-02-10T07:43:14.054Z,22.27
2019-02-10T07:46:06.667Z,19.13
2019-02-10T07:49:18.271Z,25.10
2019-02-10T07:52:34.707Z,20.57
2019-02-10T07:55:33.114Z,23.40
2019-02-10T07:58:49.111Z,18.40
2019-02-10T08:02:09.807Z,19.37
2019-02-10T08:05:13.947Z,21.03
2019-02-10T08:08:18.498Z,22.30
2019-02-10T08:11:26.369Z,16.23
2019-02-10T08:14:35.255Z,15.47
2019-02-10T08:17:48.438Z,17.30
2019-02-10T08:21:06.005Z,13.20
2019-02-10T08:24:17.995Z,16.63
2019-02-10T08:27:19.102Z,19.67
2019-02-10T08:30:17.568Z,19.53
2019-02-10T08:33:30.342Z,19.67
2019-02-10T08:36:40.362Z,22.93
2019-02-10T08:39:59.348Z,16.47
2019-02-10T08:43:03.520Z,16.97
2019-02-10T08:46:17.983Z,24.03
2019-02-10T08:49:23.742Z,23.47
2019-02-10T08:52:27.906Z,23.57
2019-02-10T08:55:00.119Z,20.90
2019-02-10T08:57:30.744Z,16.47
2019-02-10T09:00:01.220Z,20.83
2019-02-10T09:02:31.728Z,21.17
2019-02-10T09:05:02.263Z,19.53
2019-02-10T09:07:32.768Z,30.20
2019-02-10T09:10:03.341Z,14.67
2019-02-10T09:12:33.839Z,19.27
2019-02-10T09:15:08.878Z,25.10
2019-02-10T09:17:39.406Z,21.67
2019-02-10T09:20:10.147Z,22.87
2019-02-10T09:22:40.631Z,19.10
2019-02-10T09:25:11.439Z,16.43
2019-02-10T09:27:41.967Z,18.27
2019-02-10T09:30:13.142Z,15.77
2019-02-10T09:32:43.648Z,24.43
2019-02-10T09:35:14.526Z,25.97
2019-02-10T09:37:45.006Z,18.60
2019-02-10T09:40:15.501Z,18.87
2019-02-10T09:42:46.016Z,29.57
2019-02-10T09:45:16.526Z,30.37
2019-02-10T09:47:47.118Z,23.37
2019-02-10T09:50:19.413Z,16.83
2019-02-10T09:52:50.392Z,25.23
2019-02-10T09:55:20.912Z,25.63
2019-02-10T09:57:51.411Z,27.97
2019-02-10T10:00:24.399Z,19.60
2019-02-10T10:02:54.887Z,22.50
2019-02-10T10:05:25.404Z,21.10
2019-02-10T10:07:55.896Z,27.40
2019-02-10T10:10:26.411Z,28.60
2019-02-10T10:12:56.939Z,21.13
2019-02-10T10:15:27.444Z,26.17
2019-02-10T10:17:57.922Z,24.83
2019-02-10T10:20:28.441Z,20.03
2019-02-10T10:22:59.263Z,25.23
2019-02-10T10:25:29.734Z,21.27
2019-02-10T10:28:00.243Z,18.87
2019-02-10T10:30:30.725Z,19.60
2019-02-10T10:33:01.259Z,22.90
2019-02-10T10:35:31.737Z,18.33
2019-02-10T10:38:02.241Z,20.97
2019-02-10T10:40:32.746Z,22.50
2019-02-10T10:43:03.243Z,20.27
2019-02-10T10:45:34.041Z,19.23
2019-02-10T10:48:04.559Z,16.77
2019-02-10T10:50:35.035Z,22.43
2019-02-10T10:53:05.812Z,14.47
2019-02-10T10:55:36.272Z,32.80
2019-02-10T10:58:06.791Z,23.80
2019-02-10T11:00:37.374Z,20.90
2019-02-10T11:03:07.871Z,21.50
2019-02-10T11:05:38.371Z,26.57
2019-02-10T11:08:08.896Z,22.07
2019-02-10T11:10:39.360Z,19.70
2019-02-10T11:13:09.971Z,24.00
2019-02-10T11:15:40.530Z,18.47
2019-02-10T11:18:11.053Z,25.73
2019-02-10T11:20:41.546Z,26.77
2019-02-10T11:23:15.947Z,27.20
2019-02-10T11:25:46.467Z,23.13
2019-02-10T11:28:16.986Z,18.00
2019-02-10T11:30:50.475Z,26.77
2019-02-10T11:33:20.981Z,19.70
2019-02-10T11:35:51.480Z,21.83
2019-02-10T11:38:22.397Z,22.03
2019-02-10T11:40:52.876Z,22.90
2019-02-10T11:43:25.305Z,25.77
2019-02-10T11:45:55.887Z,16.87
2019-02-10T11:48:26.798Z,25.07
2019-02-10T11:50:57.327Z,17.07
2019-02-10T11:53:27.868Z,19.67
2019-02-10T11:55:58.396Z,27.57
2019-02-10T11:58:28.826Z,19.27
2019-02-10T12:00:59.979Z,15.03
2019-02-10T12:03:30.489Z,21.67
2019-02-10T12:06:00.974Z,20.47
2019-02-10T12:08:35.639Z,19.70
2019-02-10T12:11:03.596Z,20.20
2019-02-10T12:13:34.128Z,17.50
2019-02-10T12:16:04.637Z,27.53
2019-02-10T12:18:35.689Z,22.90
2019-02-10T12:21:06.186Z,21.07
2019-02-10T12:23:36.707Z,18.07
2019-02-10T12:26:11.675Z,19.33
2019-02-10T12:28:42.230Z,21.73
2019-02-10T12:31:12.726Z,19.30
2019-02-10T12:33:43.207Z,24.03
2019-02-10T12:36:13.947Z,25.97
2019-02-10T12:38:44.456Z,23.30
2019-02-10T12:41:14.939Z,18.63
2019-02-10T12:43:45.453Z,24.23
2019-02-10T12:46:16.025Z,18.83
2019-02-10T12:48:46.559Z,17.63
2019-02-10T12:51:17.103Z,21.70
2019-02-10T12:53:49.857Z,22.00
2019-02-10T12:56:20.885Z,19.10
2019-02-10T12:58:51.567Z,21.30
2019-02-10T13:01:22.133Z,24.50
2019-02-10T13:03:52.612Z,27.50
2019-02-10T13:06:23.116Z,23.80
2019-02-10T13:08:54.092Z,20.67
2019-02-10T13:11:24.657Z,17.70
2019-02-10T13:13:55.174Z,25.57
2019-02-10T13:16:25.664Z,24.53
2019-02-10T13:18:56.232Z,20.90
2019-02-10T13:21:26.745Z,24.33
2019-02-10T13:23:57.290Z,18.03
2019-02-10T13:26:27.937Z,20.63
2019-02-10T13:28:58.928Z,22.70
2019-02-10T13:31:29.441Z,22.33
2019-02-10T13:34:00.552Z,17.80
2019-02-10T13:36:31.054Z,21.00
2019-02-10T13:39:01.587Z,19.83
2019-02-10T13:41:37.015Z,17.93
2019-02-10T13:44:07.697Z,22.57
2019-02-10T13:46:38.215Z,25.90
2019-02-10T13:49:08.814Z,22.57
2019-02-10T13:51:39.358Z,19.07
2019-02-10T13:54:09.889Z,17.33
2019-02-10T13:56:40.416Z,22.53
2019-02-10T13:59:11.018Z,20.90
2019-02-10T14:01:41.561Z,25.63
2019-02-10T14:04:12.055Z,22.57
2019-02-10T14:06:42.612Z,19.07
2019-02-10T14:09:13.099Z,22.23
2019-02-10T14:11:43.584Z,17.90
2019-02-10T14:14:14.115Z,21.07
2019-02-10T14:16:44.597Z,17.43
2019-02-10T14:19:15.114Z,20.07
2019-02-10T14:21:45.592Z,22.03
2019-02-10T14:24:16.096Z,14.93
2019-02-10T14:26:46.587Z,22.30
2019-02-10T14:29:17.200Z,20.47
2019-02-10T14:31:47.730Z,16.50
2019-02-10T14:34:18.215Z,20.30
2019-02-10T14:36:48.728Z,26.13
2019-02-10T14:39:19.267Z,17.60
2019-02-10T14:41:49.791Z,20.53
2019-02-10T14:44:20.302Z,17.30
2019-02-10T14:46:50.794Z,17.63
2019-02-10T14:49:21.419Z,19.17
2019-02-10T14:51:54.345Z,18.50
2019-02-10T14:54:25.002Z,23.17
2019-02-10T14:56:55.432Z,20.87
2019-02-10T14:59:25.962Z,28.03
2019-02-10T15:01:56.832Z,20.93
2019-02-10T15:04:27.346Z,21.33
2019-02-10T15:06:57.832Z,25.53
2019-02-10T15:09:28.399Z,22.77
2019-02-10T15:11:59.998Z,20.17
2019-02-10T15:14:30.415Z,17.80
2019-02-10T15:17:01.223Z,18.83
2019-02-10T15:19:31.770Z,19.17
2019-02-10T15:22:02.278Z,15.70
2019-02-10T15:24:32.795Z,18.17
2019-02-10T15:27:03.678Z,17.73
2019-02-10T15:29:34.195Z,13.83
2019-02-10T15:32:04.718Z,18.70
2019-02-10T15:34:35.229Z,26.90
2019-02-10T15:37:08.747Z,21.60
2019-02-10T15:39:39.250Z,13.90
2019-02-10T15:42:09.804Z,12.63
2019-02-10T15:44:40.238Z,13.40
2019-02-10T15:47:10.810Z,20.30
2019-02-10T15:49:41.304Z,14.47
2019-02-10T15:52:11.891Z,16.10
2019-02-10T15:54:42.386Z,9.87
2019-02-10T15:57:12.867Z,13.53
2019-02-10T15:59:43.326Z,12.70
2019-02-10T16:02:14.230Z,9.57
2019-02-10T16:04:44.712Z,8.13
2019-02-10T16:07:15.527Z,14.03
2019-02-10T16:09:46.038Z,7.93
2019-02-10T16:12:16.503Z,13.17
2019-02-10T16:14:47.359Z,8.43
2019-02-10T16:17:17.863Z,12.80
2019-02-10T16:19:48.322Z,7.57
2019-02-10T16:22:20.418Z,13.60
2019-02-10T16:24:50.960Z,5.57
2019-02-10T16:27:21.506Z,14.77
2019-02-10T16:29:51.998Z,12.50
2019-02-10T16:32:22.799Z,6.80
2019-02-10T16:34:53.552Z,8.90
2019-02-10T16:37:24.395Z,11.03
2019-02-10T16:39:57.066Z,10.03
2019-02-10T16:42:27.597Z,7.23
2019-02-10T16:44:58.107Z,7.43
2019-02-10T16:47:28.608Z,9.13
2019-02-10T16:49:59.458Z,11.67
2019-02-10T16:52:30.007Z,8.87
2019-02-10T16:55:01.419Z,9.10
2019-02-10T16:57:32.271Z,8.50
2019-02-10T17:00:02.783Z,6.20
2019-02-10T17:02:33.295Z,4.77
2019-02-10T17:05:04.165Z,9.37
2019-02-10T17:07:34.693Z,10.43
2019-02-10T17:10:05.295Z,5.60
2019-02-10T17:12:36.092Z,7.33
2019-02-10T17:15:07.364Z,8.07
2019-02-10T17:17:37.873Z,8.50
2019-02-10T17:20:09.280Z,5.77
2019-02-10T17:22:40.710Z,11.20
2019-02-10T17:25:13.468Z,12.07
2019-02-10T17:27:43.975Z,10.50
2019-02-10T17:30:14.939Z,10.37
2019-02-10T17:32:45.531Z,11.77
2019-02-10T17:35:16.097Z,11.27
2019-02-10T17:37:46.718Z,7.33
2019-02-10T17:40:21.179Z,5.03
2019-02-10T17:42:51.998Z,10.03
2019-02-10T17:45:24.381Z,5.70
2019-02-10T17:47:55.272Z,6.87
2019-02-10T17:50:25.794Z,4.27
2019-02-10T17:52:56.515Z,9.60
2019-02-10T17:55:27.022Z,7.87
2019-02-10T17:57:57.580Z,7.10
2019-02-10T18:00:31.804Z,7.13
2019-02-10T18:03:02.319Z,7.03
2019-02-10T18:05:32.931Z,6.77
2019-02-10T18:08:03.468Z,10.77
2019-02-10T18:10:33.995Z,3.87
2019-02-10T18:13:04.518Z,9.17
2019-02-10T18:15:43.264Z,4.67
2019-02-10T18:18:29.296Z,5.80
2019-02-10T18:21:17.407Z,5.67
2019-02-10T18:24:09.987Z,5.97
2019-02-10T18:27:02.211Z,7.57
2019-02-10T18:30:00.713Z,6.20
2019-02-10T18:33:08.150Z,8.03
2019-02-10T18:35:47.866Z,5.70
2019-02-10T18:38:43.177Z,6.43
2019-02-10T18:41:41.676Z,4.87
2019-02-10T18:44:27.171Z,8.37
2019-02-10T18:47:25.668Z,6.10
2019-02-10T18:50:33.272Z,6.33
2019-02-10T18:53:14.481Z,9.17
2019-02-10T18:56:21.991Z,3.40
2019-02-10T18:59:11.863Z,6.40
2019-02-10T19:01:59.470Z,4.63
2019-02-10T19:05:07.173Z,4.77
2019-02-10T19:08:02.556Z,3.23
2019-02-10T19:10:52.039Z,6.43
2019-02-10T19:13:38.843Z,6.07
2019-02-10T19:16:28.427Z,5.60
2019-02-10T19:19:16.675Z,4.70
2019-02-10T19:22:06.123Z,4.07
2019-02-10T19:24:54.024Z,8.10
2019-02-10T19:27:41.055Z,5.97
2019-02-10T19:30:36.487Z,5.00
2019-02-10T19:33:31.947Z,7.60
2019-02-10T19:36:27.006Z,4.77
2019-02-10T19:39:25.612Z,4.63
2019-02-10T19:42:11.623Z,6.73
2019-02-10T19:44:59.883Z,7.93
2019-02-10T19:47:56.810Z,5.17
2019-02-10T19:50:37.220Z,4.30
2019-02-10T19:53:22.616Z,4.10
2019-02-10T19:56:12.098Z,4.37
2019-02-10T19:58:58.660Z,4.23
2019-02-10T20:01:46.552Z,3.63
2019-02-10T20:04:38.779Z,3.47
2019-02-10T20:07:31.020Z,4.03
2019-02-10T20:10:30.244Z,3.77
2019-02-10T20:13:10.099Z,2.13
2019-02-10T20:15:46.785Z,2.93
2019-02-10T20:18:39.125Z,4.40
2019-02-10T20:21:24.468Z,3.00
2019-02-10T20:24:13.916Z,2.50
2019-02-10T20:27:09.693Z,1.73
2019-02-10T20:29:49.470Z,3.80
2019-02-10T20:32:37.695Z,3.53
2019-02-10T20:35:42.068Z,3.97
2019-02-10T20:38:19.520Z,2.63
2019-02-10T20:40:58.177Z,4.23
2019-02-10T20:43:50.407Z,2.90
2019-02-10T20:46:37.901Z,5.20
2019-02-10T20:49:33.363Z,2.00
2019-02-10T20:52:30.137Z,2.17
2019-02-10T20:55:05.442Z,2.83
2019-02-10T20:58:03.744Z,2.87
2019-02-10T21:01:05.060Z,3.10
2019-02-10T21:03:53.293Z,1.93
2019-02-10T21:06:29.839Z,2.33
2019-02-10T21:09:16.972Z,3.53
2019-02-10T21:11:58.915Z,1.47
2019-02-10T21:14:40.216Z,3.67
2019-02-10T21:17:17.441Z,2.07
2019-02-10T21:20:04.577Z,1.67
2019-02-10T21:22:50.781Z,2.07
2019-02-10T21:25:52.631Z,3.03
2019-02-10T21:28:33.218Z,1.70
2019-02-10T21:31:25.414Z,4.63
2019-02-10T21:34:05.035Z,1.70
2019-02-10T21:36:54.493Z,2.13
2019-02-10T21:39:53.358Z,3.27
2019-02-10T21:42:36.211Z,2.17
2019-02-10T21:45:13.973Z,2.90
2019-02-10T21:47:51.511Z,1.60
2019-02-10T21:50:21.998Z,2.40
2019-02-10T21:52:52.839Z,2.33
2019-02-10T21:55:23.352Z,2.33
2019-02-10T21:57:53.869Z,1.67
2019-02-10T22:00:28.064Z,2.47
2019-02-10T22:02:58.559Z,2.50
2019-02-10T22:05:29.120Z,2.80
2019-02-10T22:07:59.580Z,2.20
2019-02-10T22:10:30.064Z,2.70
2019-02-10T22:13:00.550Z,1.40
2019-02-10T22:15:31.739Z,2.73
2019-02-10T22:18:03.071Z,1.90
2019-02-10T22:20:33.568Z,1.50
2019-02-10T22:23:04.039Z,1.90
2019-02-10T22:25:34.537Z,1.50
2019-02-10T22:28:05.023Z,2.17
2019-02-10T22:30:35.548Z,1.40
2019-02-10T22:33:06.041Z,1.80
2019-02-10T22:35:36.522Z,1.53
2019-02-10T22:38:07.034Z,1.53
2019-02-10T22:40:37.560Z,1.83
2019-02-10T22:43:08.040Z,2.10
2019-02-10T22:45:38.540Z,1.83
2019-02-10T22:48:09.054Z,1.47
2019-02-10T22:50:39.633Z,1.87
2019-02-10T22:53:10.932Z,1.20
2019-02-10T22:55:41.443Z,1.40
2019-02-10T22:58:11.982Z,1.73
2019-02-10T23:00:50.576Z,1.37
2019-02-10T23:03:21.062Z,1.27
2019-02-10T23:05:51.572Z,2.10
2019-02-10T23:08:22.094Z,1.53
2019-02-10T23:10:52.491Z,1.40
2019-02-10T23:13:22.971Z,2.13
2019-02-10T23:15:53.471Z,1.40
2019-02-10T23:18:24.289Z,1.60
2019-02-10T23:20:54.823Z,4.43
2019-02-10T23:23:25.311Z,1.30
2019-02-10T23:25:55.838Z,1.43
2019-02-10T23:28:26.455Z,1.40
2019-02-10T23:30:56.973Z,1.40
2019-02-10T23:33:27.451Z,1.40
2019-02-10T23:35:57.991Z,1.90
2019-02-10T23:38:28.464Z,1.60
2019-02-10T23:40:58.932Z,3.60
2019-02-10T23:43:29.460Z,1.70
2019-02-10T23:45:59.931Z,1.70
2019-02-10T23:48:30.428Z,1.60
2019-02-10T23:51:01.271Z,1.67
2019-02-10T23:53:31.766Z,1.60
2019-02-10T23:56:03.170Z,1.70
2019-02-10T23:58:33.651Z,1.77
